TimeEST,TemperatureF,Dew PointF,Humidity,Sea Level PressureIn,VisibilityMPH,Wind Direction,Wind SpeedMPH,Gust SpeedMPH,PrecipitationIn,Events,Conditions,WindDirDegrees,DateUTC
12:53 AM,59.0,53.1,81,30.22,10.0,North,4.6,-,N/A,,Clear,10,2013-01-27 05:53:00
1:53 AM,57.9,52.0,81,30.22,10.0,NE,3.5,-,N/A,,Clear,40,2013-01-27 06:53:00
2:53 AM,57.9,51.1,78,30.21,10.0,NNE,3.5,-,N/A,,Clear,30,2013-01-27 07:53:00
3:53 AM,57.0,51.1,81,30.21,10.0,NE,4.6,-,N/A,,Clear,40,2013-01-27 08:53:00
4:53 AM,57.9,54.0,87,30.21,9.0,NE,5.8,-,N/A,,Clear,40,2013-01-27 09:53:00
5:53 AM,57.0,55.0,93,30.21,8.0,NE,4.6,-,N/A,,Clear,50,2013-01-27 10:53:00
6:53 AM,57.9,55.9,93,30.23,8.0,NE,5.8,-,N/A,,Clear,40,2013-01-27 11:53:00
7:53 AM,59.0,57.0,93,30.25,7.0,NE,6.9,-,N/A,,Clear,50,2013-01-27 12:53:00
8:53 AM,64.9,57.9,78,30.26,10.0,NE,9.2,-,N/A,,Clear,50,2013-01-27 13:53:00
9:53 AM,72.0,57.9,61,30.27,10.0,NE,12.7,-,N/A,,Clear,50,2013-01-27 14:53:00
10:53 AM,75.9,60.1,58,30.27,10.0,East,8.1,-,N/A,,Clear,80,2013-01-27 15:53:00
11:53 AM,78.1,61.0,56,30.26,10.0,ENE,10.4,-,N/A,,Partly Cloudy,70,2013-01-27 16:53:00
12:53 PM,79.0,59.0,50,30.23,10.0,ESE,11.5,-,N/A,,Partly Cloudy,110,2013-01-27 17:53:00
1:53 PM,81.0,57.9,45,30.20,10.0,ENE,9.2,-,N/A,,Partly Cloudy,70,2013-01-27 18:53:00
2:53 PM,82.0,57.9,44,30.19,8.0,ENE,9.2,17.3,N/A,,Scattered Clouds,60,2013-01-27 19:53:00
3:53 PM,81.0,57.0,44,30.19,10.0,ENE,10.4,-,N/A,,Overcast,60,2013-01-27 20:53:00
4:53 PM,80.1,57.0,45,30.19,10.0,East,11.5,-,N/A,,Overcast,80,2013-01-27 21:53:00
5:53 PM,77.0,57.0,50,30.22,10.0,ENE,8.1,-,N/A,,Mostly Cloudy,70,2013-01-27 22:53:00
6:53 PM,73.9,57.0,55,30.24,10.0,ENE,8.1,-,N/A,,Partly Cloudy,60,2013-01-27 23:53:00
7:53 PM,72.0,57.9,61,30.25,10.0,East,8.1,-,N/A,,Mostly Cloudy,80,2013-01-28 00:53:00
8:53 PM,73.0,59.0,61,30.26,10.0,East,10.4,-,N/A,,Overcast,80,2013-01-28 01:53:00
9:53 PM,71.1,59.0,66,30.26,10.0,East,9.2,-,N/A,,Overcast,80,2013-01-28 02:53:00
10:53 PM,69.1,59.0,70,30.26,10.0,East,6.9,-,N/A,,Clear,80,2013-01-28 03:53:00
11:53 PM,68.0,59.0,73,30.25,10.0,ENE,8.1,-,N/A,,Clear,70,2013-01-28 04:53:00